Time;durP1;ratioP1;P1;durP2;ratioP2;P2;SDS_P1;SDS_P2;PMS_P1;PMS_P2;Temp;Humidity;BMP_temperature;BMP_pressure;BME280_temperature;BME280_humidity;BME280_pressure;Samples;Min_cycle;Max_cycle;Signal;HPM_P1;HPM_P2
2023/12/07 15:22:44;;;;;;;1.20;1.10;;;;;;;5.05;52.68;92545.06;5113987;27;20379;-81
2023/12/07 15:25:10;;;;;;;2.13;1.10;;;;;;;4.85;53.11;92535.31;5120553;28;20065;-81
2023/12/07 15:27:35;;;;;;;1.50;1.20;;;;;;;4.82;52.34;92550.59;5094839;28;20517;-81
2023/12/07 15:30:06;;;;;;;2.05;1.40;;;;;;;4.74;51.10;92547.44;5076930;28;20043;-81
2023/12/07 15:32:32;;;;;;;3.10;1.20;;;;;;;4.65;51.01;92551.53;5086111;28;20040;-79
2023/12/07 15:34:58;;;;;;;1.42;1.25;;;;;;;4.55;51.72;92556.63;5087367;28;20093;-80
2023/12/07 15:37:24;;;;;;;2.08;1.50;;;;;;;4.42;52.47;92564.81;5083545;28;20394;-81
2023/12/07 15:39:51;;;;;;;1.63;1.20;;;;;;;4.31;53.73;92567.31;5101561;28;20036;-81
2023/12/07 15:42:21;;;;;;;2.75;1.50;;;;;;;4.21;53.72;92566.41;5094184;28;20028;-81
2023/12/07 15:44:46;;;;;;;3.78;1.70;;;;;;;4.19;53.92;92564.09;5094384;28;20045;-80
2023/12/07 15:47:12;;;;;;;3.70;2.20;;;;;;;4.15;53.71;92568.19;5085572;28;20058;-81
2023/12/07 15:49:37;;;;;;;4.07;2.20;;;;;;;4.07;53.40;92569.41;5090786;28;20040;-80
2023/12/07 15:52:04;;;;;;;3.42;1.90;;;;;;;3.96;53.06;92578.91;5096752;28;20020;-80
2023/12/07 15:54:30;;;;;;;2.13;1.33;;;;;;;3.89;53.53;92574.91;5093970;28;20097;-83
2023/12/07 15:56:55;;;;;;;1.20;1.05;;;;;;;3.90;53.88;92579.06;5083328;28;20036;-81
2023/12/07 15:59:21;;;;;;;0.95;0.90;;;;;;;3.81;55.04;92578.72;5086166;28;20036;-80
2023/12/07 16:01:46;;;;;;;1.30;1.00;;;;;;;3.71;54.99;92581.19;5081606;28;20058;-80
2023/12/07 16:04:14;;;;;;;5.28;1.10;;;;;;;3.63;56.21;92573.84;5081580;28;20036;-82
2023/12/07 16:06:40;;;;;;;1.45;1.00;;;;;;;3.63;54.14;92576.44;5073145;28;20029;-81
2023/12/07 16:09:06;;;;;;;1.10;1.00;;;;;;;3.58;56.00;92581.53;5075041;28;20071;-81
2023/12/07 16:11:32;;;;;;;2.00;1.40;;;;;;;3.48;57.33;92588.16;5093373;28;20023;-81
2023/12/07 16:13:58;;;;;;;1.77;1.30;;;;;;;3.37;58.24;92583.88;5075335;28;20048;-80
2023/12/07 16:16:25;;;;;;;2.97;1.45;;;;;;;3.26;57.86;92585.53;5098037;28;20123;-82
2023/12/07 16:18:50;;;;;;;1.80;1.20;;;;;;;3.20;57.69;92585.69;5089325;28;20487;-81
2023/12/07 16:21:20;;;;;;;1.42;1.00;;;;;;;3.09;58.35;92588.16;5090911;28;20056;-82
2023/12/07 16:23:47;;;;;;;1.35;1.00;;;;;;;3.03;58.23;92599.44;5101888;28;20220;-80
2023/12/07 16:26:12;;;;;;;1.20;1.10;;;;;;;2.97;58.10;92599.59;5087058;28;20020;-81
2023/12/07 16:28:38;;;;;;;3.53;1.50;;;;;;;2.90;57.84;92607.53;5085986;28;20373;-82
2023/12/07 16:31:06;;;;;;;2.97;2.00;;;;;;;2.85;57.96;92602.28;5090640;28;20032;-81
2023/12/07 16:33:32;;;;;;;4.90;3.30;;;;;;;2.78;58.09;92599.84;5073878;28;20036;-81
2023/12/07 16:35:58;;;;;;;6.35;4.72;;;;;;;2.76;57.79;92601.09;5060073;28;20044;-82
2023/12/07 16:38:23;;;;;;;3.42;2.13;;;;;;;2.73;59.25;92611.94;5076752;28;20040;-81
2023/12/07 16:40:49;;;;;;;3.05;1.70;;;;;;;2.63;59.56;92615.13;5068667;28;20041;-81
2023/12/07 16:43:14;;;;;;;2.47;1.60;;;;;;;2.56;58.20;92623.00;5068828;28;20518;-82
2023/12/07 16:45:40;;;;;;;2.97;1.95;;;;;;;2.50;58.67;92619.56;5069965;28;20029;-82
2023/12/07 16:48:06;;;;;;;2.25;1.60;;;;;;;2.42;58.45;92619.16;5082748;28;20371;-82
2023/12/07 16:50:31;;;;;;;2.78;1.73;;;;;;;2.38;58.13;92626.59;5079353;28;20040;-80
2023/12/07 16:52:57;;;;;;;5.15;3.10;;;;;;;2.29;58.25;92626.19;5070171;28;20051;-81
2023/12/07 16:55:25;;;;;;;4.63;2.65;;;;;;;2.27;59.06;92635.97;5081807;28;20043;-82
2023/12/07 16:57:50;;;;;;;2.35;1.58;;;;;;;2.22;59.08;92648.78;5077373;28;20090;-81
2023/12/07 17:00:16;;;;;;;3.35;1.88;;;;;;;2.18;60.40;92645.09;5081191;28;20517;-83
2023/12/07 17:02:41;;;;;;;4.45;2.28;;;;;;;2.13;60.05;92639.84;5078735;28;20158;-83
2023/12/07 17:05:07;;;;;;;3.95;1.70;;;;;;;2.10;60.52;92629.97;5084798;28;20040;-82
2023/12/07 17:07:32;;;;;;;3.03;1.80;;;;;;;2.03;61.12;92643.03;5085431;28;20407;-82
2023/12/07 17:09:58;;;;;;;6.68;4.97;;;;;;;1.97;60.50;92656.06;5096869;28;20483;-80
2023/12/07 17:12:23;;;;;;;6.68;4.13;;;;;;;1.96;60.10;92649.31;5074909;28;20127;-80
2023/12/07 17:14:49;;;;;;;3.05;1.92;;;;;;;1.91;59.72;92650.00;5088994;28;20062;-81
2023/12/07 17:17:14;;;;;;;3.20;1.90;;;;;;;1.85;59.49;92641.38;5078732;28;21168;-82
2023/12/07 17:19:40;;;;;;;4.25;2.70;;;;;;;1.81;60.17;92645.44;5076579;28;20209;-82
2023/12/07 17:22:08;;;;;;;3.28;2.10;;;;;;;1.79;59.73;92644.88;5118032;27;20051;-79
2023/12/07 17:24:34;;;;;;;4.05;2.20;;;;;;;1.73;60.52;92637.25;5081455;28;20036;-80
2023/12/07 17:27:00;;;;;;;2.53;1.70;;;;;;;1.76;61.22;92647.91;5081391;28;20118;-81
2023/12/07 17:29:26;;;;;;;2.67;1.65;;;;;;;1.74;61.28;92655.09;5083403;28;20490;-81
2023/12/07 17:31:51;;;;;;;5.65;2.92;;;;;;;1.67;61.12;92665.53;5084820;28;20024;-83
2023/12/07 17:34:17;;;;;;;10.80;6.80;;;;;;;1.65;60.63;92667.56;5079364;28;20522;-83
2023/12/07 17:36:43;;;;;;;4.10;2.83;;;;;;;1.62;60.79;92672.38;5079533;28;20033;-83
2023/12/07 17:39:08;;;;;;;3.65;1.80;;;;;;;1.57;61.16;92661.97;5067827;28;20056;-82
2023/12/07 17:41:34;;;;;;;2.20;1.60;;;;;;;1.59;61.19;92672.84;5071348;28;20036;-80
2023/12/07 17:44:00;;;;;;;3.13;1.73;;;;;;;1.58;61.55;92671.28;5075335;28;20120;-82
2023/12/07 17:46:26;;;;;;;2.13;1.55;;;;;;;1.52;61.13;92662.66;5076406;28;20039;-82
2023/12/07 17:48:52;;;;;;;2.92;1.60;;;;;;;1.48;61.91;92658.94;5070936;28;20036;-84
2023/12/07 17:51:17;;;;;;;3.30;2.20;;;;;;;1.47;61.74;92665.13;5078358;28;20320;-82
2023/12/07 17:53:43;;;;;;;3.92;2.17;;;;;;;1.45;61.19;92673.09;5075123;28;20037;-81
2023/12/07 17:56:09;;;;;;;3.75;2.40;;;;;;;1.42;61.57;92676.13;5071743;28;20043;-82
2023/12/07 17:58:34;;;;;;;4.05;2.53;;;;;;;1.42;61.01;92683.84;5075642;28;20083;-81
2023/12/07 18:01:00;;;;;;;4.35;2.58;;;;;;;1.37;61.73;92673.41;5087322;28;20111;-81
2023/12/07 18:03:25;;;;;;;2.90;1.70;;;;;;;1.33;62.35;92680.06;5076914;28;20119;-81
2023/12/07 18:05:51;;;;;;;3.92;2.50;;;;;;;1.33;62.29;92671.50;5070394;28;20577;-80
2023/12/07 18:08:16;;;;;;;4.38;3.10;;;;;;;1.30;62.24;92672.75;5075137;28;20060;-82
2023/12/07 18:10:42;;;;;;;4.25;2.80;;;;;;;1.29;62.04;92666.03;5074285;28;20060;-82
2023/12/07 18:13:09;;;;;;;5.05;3.03;;;;;;;1.28;62.10;92663.66;5076594;28;20051;-81
2023/12/07 18:15:35;;;;;;;4.55;2.67;;;;;;;1.29;62.30;92673.00;5088289;28;20131;-82
2023/12/07 18:18:00;;;;;;;4.13;2.70;;;;;;;1.27;61.69;92673.19;5074085;28;20032;-80
2023/12/07 18:20:26;;;;;;;5.80;3.65;;;;;;;1.25;61.18;92677.78;5076191;28;20039;-81
2023/12/07 18:22:52;;;;;;;4.95;2.50;;;;;;;1.24;61.58;92687.34;5071155;28;20066;-81
2023/12/07 18:25:17;;;;;;;2.50;1.60;;;;;;;1.21;61.88;92681.81;5086072;28;20157;-82
2023/12/07 18:27:43;;;;;;;2.10;1.42;;;;;;;1.15;62.86;92680.94;5077592;28;20033;-81
2023/12/07 18:30:09;;;;;;;2.03;1.40;;;;;;;1.12;61.91;92675.44;5078731;28;20020;-81
2023/12/07 18:32:34;;;;;;;2.92;1.90;;;;;;;1.11;61.92;92697.09;5063385;28;20392;-81
2023/12/07 18:35:00;;;;;;;3.83;2.38;;;;;;;1.08;61.37;92692.34;5071038;28;20037;-81
2023/12/07 18:37:26;;;;;;;3.35;2.10;;;;;;;1.04;61.90;92692.03;5055704;28;20052;-82
2023/12/07 18:39:52;;;;;;;2.63;1.98;;;;;;;1.02;61.06;92692.25;5070416;28;20515;-82
2023/12/07 18:42:18;;;;;;;8.48;4.45;;;;;;;1.00;61.38;92698.63;5055325;28;20492;-81
2023/12/07 18:44:43;;;;;;;7.78;4.35;;;;;;;0.97;61.61;92696.50;5065933;28;20029;-82
2023/12/07 18:47:10;;;;;;;5.57;3.40;;;;;;;0.97;61.48;92697.28;5098002;28;20032;-81
2023/12/07 18:49:36;;;;;;;6.57;3.90;;;;;;;0.95;62.21;92699.28;5075430;28;20048;-81
2023/12/07 18:52:03;;;;;;;9.73;3.92;;;;;;;0.94;62.18;92700.28;5066245;28;20521;-82
2023/12/07 18:54:34;;;;;;;5.38;3.30;;;;;;;0.97;63.40;92712.75;5066245;28;20143;-82
2023/12/07 18:57:01;;;;;;;4.53;2.35;;;;;;;0.95;62.81;92717.34;5074342;28;20044;-81
2023/12/07 18:59:26;;;;;;;7.28;4.05;;;;;;;0.89;63.16;92718.22;5080969;28;20028;-80
2023/12/07 19:01:52;;;;;;;6.93;3.85;;;;;;;0.84;63.50;92725.84;5060280;28;20032;-81
2023/12/07 19:04:19;;;;;;;9.23;5.40;;;;;;;0.82;64.50;92733.00;5072269;28;20032;-81
2023/12/07 19:06:45;;;;;;;4.68;2.88;;;;;;;0.79;64.80;92741.19;5070080;28;20462;-79
2023/12/07 19:09:13;;;;;;;3.40;1.75;;;;;;;0.82;64.25;92744.09;5067044;28;20028;-80
2023/12/07 19:11:38;;;;;;;3.08;1.70;;;;;;;0.81;64.77;92749.44;5061671;28;20063;-80
2023/12/07 19:14:04;;;;;;;3.50;1.70;;;;;;;0.87;64.75;92750.38;5068861;28;20028;-80
2023/12/07 19:16:29;;;;;;;2.20;1.30;;;;;;;0.87;64.95;92748.56;5073335;28;20117;-81
2023/12/07 19:18:55;;;;;;;2.22;1.50;;;;;;;0.81;65.54;92744.28;5078364;28;20036;-80
2023/12/07 19:21:20;;;;;;;2.35;1.40;;;;;;;0.81;64.99;92739.13;5089732;28;20050;-81
2023/12/07 19:23:46;;;;;;;5.20;2.90;;;;;;;0.81;65.46;92741.72;5071922;28;20067;-83
2023/12/07 19:26:11;;;;;;;9.32;5.18;;;;;;;0.81;65.32;92731.41;5082025;28;20089;-82
2023/12/07 19:28:38;;;;;;;29.60;17.77;;;;;;;0.79;65.31;92726.50;5066656;28;20045;-78
2023/12/07 19:31:11;;;;;;;47.67;26.92;;;;;;;0.80;65.45;92725.47;5073314;28;20032;-81
2023/12/07 19:33:37;;;;;;;34.55;21.70;;;;;;;0.80;65.57;92722.13;5069361;28;20376;-81
2023/12/07 19:36:02;;;;;;;13.45;7.93;;;;;;;0.80;65.28;92717.75;5078838;28;20040;-81
2023/12/07 19:38:28;;;;;;;29.05;18.02;;;;;;;0.83;66.21;92719.09;5064109;28;20036;-79
2023/12/07 19:40:55;;;;;;;15.57;9.43;;;;;;;0.86;67.42;92721.25;5065947;28;20111;-79
2023/12/07 19:43:20;;;;;;;7.28;4.20;;;;;;;0.88;66.60;92716.66;5060246;28;20061;-79
2023/12/07 19:45:46;;;;;;;4.82;2.40;;;;;;;0.91;66.35;92718.00;5059452;28;20028;-79
2023/12/07 19:48:12;;;;;;;3.03;1.83;;;;;;;0.91;67.00;92713.63;5072304;28;20162;-78
2023/12/07 19:50:38;;;;;;;3.47;1.85;;;;;;;0.93;67.16;92703.88;5061813;28;20047;-80
2023/12/07 19:53:03;;;;;;;1.50;1.30;;;;;;;0.94;68.41;92702.09;5065923;28;20094;-80
2023/12/07 19:55:30;;;;;;;2.28;1.50;;;;;;;0.93;68.08;92701.31;5072919;28;20041;-79
2023/12/07 19:57:59;;;;;;;2.33;1.40;;;;;;;0.95;68.44;92704.44;5068370;28;20037;-80
2023/12/07 20:00:24;;;;;;;2.03;1.40;;;;;;;0.93;67.91;92698.72;5072772;28;20036;-79
2023/12/07 20:02:50;;;;;;;6.97;3.20;;;;;;;0.98;67.82;92698.06;5076425;28;20041;-79
2023/12/07 20:05:15;;;;;;;4.25;2.50;;;;;;;0.98;68.35;92704.00;5072865;28;20043;-81
2023/12/07 20:07:41;;;;;;;8.02;4.45;;;;;;;0.96;68.42;92693.13;5063483;28;20059;-80
2023/12/07 20:10:08;;;;;;;7.10;4.07;;;;;;;1.00;68.58;92699.41;5080561;28;20461;-81
2023/12/07 20:12:36;;;;;;;7.22;4.20;;;;;;;1.00;68.46;92696.84;5080011;28;20119;-80
2023/12/07 20:15:03;;;;;;;5.70;3.30;;;;;;;1.00;68.02;92702.00;5081899;28;20032;-80
2023/12/07 20:17:29;;;;;;;7.18;4.88;;;;;;;0.99;67.96;92697.84;5058559;28;20049;-80
2023/12/07 20:19:54;;;;;;;6.88;3.53;;;;;;;1.02;67.51;92697.41;5072796;28;20035;-80
2023/12/07 20:22:20;;;;;;;8.95;4.22;;;;;;;1.05;67.18;92703.91;5077201;28;20036;-79
2023/12/07 20:24:46;;;;;;;5.57;3.42;;;;;;;1.06;67.93;92699.53;5071954;28;20093;-80
2023/12/07 20:27:11;;;;;;;3.80;2.13;;;;;;;1.05;67.30;92696.16;5083533;28;20036;-79
2023/12/07 20:29:37;;;;;;;3.45;1.95;;;;;;;1.06;67.65;92694.38;5072956;28;20454;-79
2023/12/07 20:32:02;;;;;;;2.38;1.60;;;;;;;1.04;68.08;92686.88;5078618;28;20045;-79
2023/12/07 20:34:30;;;;;;;2.38;1.40;;;;;;;1.06;67.96;92694.38;5070269;28;20047;-80
2023/12/07 20:36:58;;;;;;;4.47;2.67;;;;;;;1.02;69.32;92689.66;5077514;28;20109;-78
2023/12/07 20:39:24;;;;;;;14.55;10.35;;;;;;;0.97;69.58;92681.81;5080400;28;20040;-78
2023/12/07 20:41:50;;;;;;;11.85;8.82;;;;;;;0.93;68.83;92679.91;5073236;28;20108;-77
2023/12/07 20:44:15;;;;;;;8.73;6.35;;;;;;;0.91;68.99;92672.38;5089148;28;20111;-78
2023/12/07 20:46:41;;;;;;;6.20;3.90;;;;;;;0.88;68.56;92670.25;5071993;28;20411;-77
2023/12/07 20:49:08;;;;;;;4.55;2.45;;;;;;;0.87;68.93;92667.91;5070111;28;20543;-79
2023/12/07 20:51:34;;;;;;;2.40;1.60;;;;;;;0.86;69.26;92663.72;5071311;28;20028;-78
2023/12/07 20:54:00;;;;;;;8.52;4.35;;;;;;;0.82;68.83;92669.34;5057968;28;20595;-79
2023/12/07 20:56:26;;;;;;;11.10;5.85;;;;;;;0.84;68.83;92658.81;5073989;28;20037;-79
2023/12/07 20:58:52;;;;;;;7.85;4.13;;;;;;;0.83;70.00;92657.22;5075316;28;20033;-79
2023/12/07 21:01:19;;;;;;;8.32;5.38;;;;;;;0.85;69.57;92660.38;5075350;28;20028;-78
2023/12/07 21:03:44;;;;;;;10.95;6.07;;;;;;;0.82;69.49;92656.47;5088428;28;20044;-79
2023/12/07 21:06:10;;;;;;;8.48;4.60;;;;;;;0.80;70.21;92648.16;5076618;28;20051;-78
2023/12/07 21:08:38;;;;;;;4.53;2.60;;;;;;;0.80;69.77;92648.16;5075430;28;20041;-78
2023/12/07 21:11:04;;;;;;;8.57;4.97;;;;;;;0.78;70.65;92646.81;5075764;28;20488;-78
2023/12/07 21:13:29;;;;;;;9.35;4.65;;;;;;;0.75;71.49;92645.47;5095475;28;20132;-78
2023/12/07 21:15:55;;;;;;;4.90;2.65;;;;;;;0.74;71.17;92650.84;5077729;28;20032;-78
2023/12/07 21:18:20;;;;;;;4.65;2.20;;;;;;;0.72;70.71;92642.53;5086004;28;20526;-78
2023/12/07 21:20:46;;;;;;;2.28;1.52;;;;;;;0.73;70.64;92646.69;5081957;28;20048;-79
2023/12/07 21:23:15;;;;;;;2.10;1.40;;;;;;;0.75;71.39;92644.69;5077063;28;20045;-78
2023/12/07 21:25:41;;;;;;;4.10;2.92;;;;;;;0.74;72.87;92648.25;5084831;28;20412;-78
2023/12/07 21:28:07;;;;;;;4.63;3.40;;;;;;;0.73;71.84;92649.28;5072374;28;20347;-78
2023/12/07 21:30:33;;;;;;;6.30;4.25;;;;;;;0.76;70.42;92648.81;5074639;28;20024;-79
2023/12/07 21:32:58;;;;;;;5.55;3.83;;;;;;;0.72;71.10;92634.81;5071948;28;20044;-79
2023/12/07 21:35:24;;;;;;;5.25;3.65;;;;;;;0.74;70.98;92632.78;5077887;28;20036;-79
2023/12/07 21:37:49;;;;;;;3.85;2.53;;;;;;;0.75;70.09;92629.22;5083596;28;20036;-78
2023/12/07 21:40:18;;;;;;;4.05;2.30;;;;;;;0.75;69.88;92627.44;5093861;28;20124;-78
2023/12/07 21:42:44;;;;;;;3.22;1.73;;;;;;;0.75;69.97;92627.44;5081750;28;20033;-78
2023/12/07 21:45:13;;;;;;;3.10;1.80;;;;;;;0.73;71.10;92626.09;5074415;28;20044;-78
2023/12/07 21:47:38;;;;;;;2.70;1.80;;;;;;;0.73;71.60;92639.75;5084103;28;20448;-78
2023/12/07 21:50:04;;;;;;;2.40;1.50;;;;;;;0.70;72.19;92640.19;5095408;28;20036;-78
2023/12/07 21:52:30;;;;;;;2.53;1.40;;;;;;;0.70;71.39;92636.81;5095300;28;20016;-78
2023/12/07 21:54:55;;;;;;;1.90;1.40;;;;;;;0.69;70.47;92640.41;5094232;28;20533;-78
2023/12/07 21:57:21;;;;;;;2.08;1.30;;;;;;;0.70;70.01;92647.13;5094904;28;20474;-79
2023/12/07 21:59:50;;;;;;;2.45;1.30;;;;;;;0.71;69.14;92651.28;5077884;28;20028;-78
2023/12/07 22:02:17;;;;;;;2.42;1.50;;;;;;;0.71;69.27;92651.28;5093324;28;20093;-78
2023/12/07 22:04:43;;;;;;;1.98;1.42;;;;;;;0.69;68.98;92650.72;5092436;28;20039;-78
2023/12/07 22:07:08;;;;;;;1.52;1.30;;;;;;;0.65;68.67;92636.72;5092820;28;20040;-78
2023/12/07 22:09:38;;;;;;;1.20;1.10;;;;;;;0.64;68.10;92630.00;5093273;28;20054;-78
2023/12/07 22:12:05;;;;;;;1.20;1.10;;;;;;;0.61;67.29;92626.84;5092887;28;20035;-78
